This demonstration page uses our WeatherBlox Daily Observations layout. Learn more.

Left ArrowRight Arrow

39.92423, -83.80882

Hourly Observations for August 7, 2016

Temp ( °F °C ) Dew Point ( °F °C ) Humidity (%) Winds ( mph kmh ) Pressure ( in mb ) Visibility ( mi km ) Precip ( " mm )
12:56 am 00:56 Clear 63 17.2 60 15.6 90 90 N N/A 29.96 1015 10 16.0934 N/A
1:56 am 01:56 Clear 63 17.2 59 15 87 87 N N/A 29.96 1015 10 16.0934 N/A
2:56 am 02:56 Clear 61 16.1 59 15 93 93 N N/A 29.96 1014 10 16.0934 N/A
3:56 am 03:56 Partly Cloudy 62 16.7 59 15 90 90 N N/A 29.96 1015 10 16.0934 N/A
4:56 am 04:56 Mostly Cloudy 62 16.7 59 15 90 90 NNW 6 9 29.98 1015 10 16.0934 N/A
5:56 am 05:56 Clear 61 16.1 58 14.4 90 90 NNE 3 6 29.99 1016 10 16.0934 N/A
6:56 am 06:56 Sunny 61 16.1 59 15 93 93 N N/A 30.01 1016 10 16.0934 N/A
7:56 am 07:56 Mostly Sunny 64 17.8 61 16.1 90 90 N N/A 30.01 1016 10 16.0934 N/A
8:56 am 08:56 Sunny 70 21.1 63 17.2 79 79 E 5 7 30.01 1016 10 16.0934 N/A
9:56 am 09:56 Sunny 75 23.9 61 16.1 62 62 ESE 6 9 30.01 1016 10 16.0934 N/A
10:56 am 10:56 Sunny 78 25.6 60 15.6 54 54 SSE 5 7 30.03 1017 10 16.0934 N/A
11:56 am 11:56 Sunny 81 27.2 63 17.2 54 54 VRB 3 6 N/A 10 16.0934 N/A
12:56 pm 12:56 Mostly Cloudy 80 26.7 60 15.6 51 51 E 7 11 30.03 1017 10 16.0934 N/A
1:56 pm 13:56 Mostly Cloudy 83 28.3 62 16.7 49 49 SE 5 7 30.02 1017 10 16.0934 N/A
2:56 pm 14:56 Partly Cloudy 83 28.3 61 16.1 48 48 VRB 3 6 30.01 1016 10 16.0934 N/A
3:56 pm 15:56 Mostly Cloudy 84 28.9 61 16.1 46 46 VRB 5 7 30 1016 10 16.0934 N/A
4:56 pm 16:56 Cloudy 82 27.8 61 16.1 49 49 E 6 9 30 1016 10 16.0934 N/A
5:56 pm 17:56 Mostly Sunny 83 28.3 62 16.7 49 49 VRB 6 9 29.98 1015 10 16.0934 N/A
6:56 pm 18:56 Mostly Sunny 80 26.7 62 16.7 54 54 N N/A 29.97 1015 10 16.0934 N/A
7:56 pm 19:56 Sunny 76 24.4 65 18.3 69 69 N N/A 29.98 1015 10 16.0934 N/A
8:56 pm 20:56 Clear 71 21.7 64 17.8 79 79 E 3 6 29.98 1015 10 16.0934 N/A
9:56 pm 21:56 Clear 70 21.1 62 16.7 76 76 ENE 7 11 30 1016 10 16.0934 N/A
10:56 pm 22:56 Clear 70 21.1 60 15.6 71 71 ENE 8 13 30 1016 10 16.0934 N/A
11:56 pm 23:56 Clear 68 20 58 14.4 70 70 ENE 7 11 30.01 1016 10 16.0934 N/A

Powered by AerisWeather